createdAt,value
2023-04-10T00:00:57.264Z,15.27
2023-04-10T00:03:26.059Z,15.57
2023-04-10T00:05:54.905Z,15.70
2023-04-10T00:08:24.896Z,14.38
2023-04-10T00:10:54.350Z,14.65
2023-04-10T00:13:22.134Z,14.50
2023-04-10T00:15:50.187Z,14.70
2023-04-10T00:18:18.054Z,13.93
2023-04-10T00:20:46.080Z,14.50
2023-04-10T00:23:13.859Z,13.88
2023-04-10T00:25:42.952Z,14.63
2023-04-10T00:28:10.820Z,14.55
2023-04-10T00:30:38.604Z,14.23
2023-04-10T00:33:06.460Z,14.52
2023-04-10T00:35:34.381Z,14.10
2023-04-10T00:38:02.195Z,13.27
2023-04-10T00:40:30.573Z,12.98
2023-04-10T00:42:59.863Z,13.10
2023-04-10T00:45:27.796Z,13.20
2023-04-10T00:47:56.062Z,12.48
2023-04-10T00:50:24.370Z,12.70
2023-04-10T00:52:52.717Z,12.32
2023-04-10T00:55:20.682Z,12.20
2023-04-10T00:57:49.208Z,11.95
2023-04-10T01:00:19.071Z,11.07
2023-04-10T01:02:48.941Z,10.70
2023-04-10T01:05:18.432Z,10.30
2023-04-10T01:07:59.986Z,11.30
2023-04-10T01:10:36.401Z,9.75
2023-04-10T01:13:09.826Z,10.23
2023-04-10T01:15:47.972Z,9.60
2023-04-10T01:18:25.368Z,9.77
2023-04-10T01:20:53.154Z,10.18
2023-04-10T01:23:42.515Z,9.73
2023-04-10T01:26:12.088Z,10.18
2023-04-10T01:28:54.945Z,9.63
2023-04-10T01:31:30.884Z,9.27
2023-04-10T01:34:03.210Z,9.23
2023-04-10T01:36:37.171Z,9.50
2023-04-10T01:39:06.532Z,8.95
2023-04-10T01:41:35.032Z,8.88
2023-04-10T01:44:05.551Z,7.80
2023-04-10T01:46:34.611Z,8.57
2023-04-10T01:49:03.578Z,8.43
2023-04-10T01:51:32.605Z,9.07
2023-04-10T01:54:04.643Z,8.52
2023-04-10T01:56:34.970Z,8.68
2023-04-10T01:59:05.613Z,7.90
2023-04-10T02:01:33.565Z,8.77
2023-04-10T02:04:01.663Z,8.25
2023-04-10T02:06:38.652Z,8.07
2023-04-10T02:09:13.510Z,8.18
2023-04-10T02:11:48.586Z,7.93
2023-04-10T02:14:19.280Z,7.90
2023-04-10T02:16:48.263Z,7.03
2023-04-10T02:19:18.021Z,8.30
2023-04-10T02:21:47.122Z,7.70
2023-04-10T02:24:15.128Z,7.85
2023-04-10T02:26:47.153Z,7.68
2023-04-10T02:29:14.985Z,7.90
2023-04-10T02:31:44.681Z,7.20
2023-04-10T02:34:13.145Z,8.38
2023-04-10T02:36:41.182Z,8.07
2023-04-10T02:39:11.055Z,7.40
2023-04-10T02:41:47.504Z,8.20
2023-04-10T02:44:15.805Z,8.02
2023-04-10T02:46:46.529Z,7.80
2023-04-10T02:49:14.969Z,8.20
2023-04-10T02:51:42.752Z,8.15
2023-04-10T02:54:11.275Z,8.38
2023-04-10T02:56:41.545Z,7.55
2023-04-10T02:59:09.386Z,8.05
2023-04-10T03:01:39.440Z,7.82
2023-04-10T03:04:09.247Z,8.20
2023-04-10T03:06:40.481Z,8.00
2023-04-10T03:09:08.506Z,8.00
2023-04-10T03:11:36.662Z,8.45
2023-04-10T03:14:05.713Z,7.95
2023-04-10T03:16:33.611Z,7.70
2023-04-10T03:19:04.448Z,7.63
2023-04-10T03:21:33.794Z,7.97
2023-04-10T03:24:02.734Z,7.45
2023-04-10T03:26:30.520Z,8.38
2023-04-10T03:28:58.349Z,7.28
2023-04-10T03:31:26.140Z,7.80
2023-04-10T03:33:57.291Z,8.13
2023-04-10T03:36:25.738Z,8.13
2023-04-10T03:38:56.141Z,8.07
2023-04-10T03:41:25.398Z,7.88
2023-04-10T03:43:53.894Z,7.82
2023-04-10T03:46:22.713Z,8.05
2023-04-10T03:48:52.812Z,8.40
2023-04-10T03:51:23.362Z,8.10
2023-04-10T03:53:52.257Z,7.95
2023-04-10T03:56:21.631Z,7.55
2023-04-10T03:58:49.634Z,7.47
2023-04-10T04:01:17.489Z,7.57
2023-04-10T04:04:02.454Z,7.75
2023-04-10T04:06:49.470Z,7.80
2023-04-10T04:09:30.651Z,8.10
2023-04-10T04:12:18.077Z,8.00
2023-04-10T04:15:02.801Z,7.82
2023-04-10T04:18:00.794Z,7.72
2023-04-10T04:20:37.247Z,7.95
2023-04-10T04:23:14.054Z,8.38
2023-04-10T04:25:57.430Z,8.20
2023-04-10T04:28:47.271Z,8.35
2023-04-10T04:31:24.142Z,8.55
2023-04-10T04:34:04.141Z,8.77
2023-04-10T04:36:52.394Z,8.65
2023-04-10T04:39:55.655Z,8.38
2023-04-10T04:42:23.419Z,8.57
2023-04-10T04:45:19.014Z,8.65
2023-04-10T04:48:05.532Z,8.38
2023-04-10T04:50:50.773Z,7.95
2023-04-10T04:53:38.373Z,8.70
2023-04-10T04:56:12.736Z,9.05
2023-04-10T04:58:52.570Z,8.82
2023-04-10T05:01:37.097Z,8.88
2023-04-10T05:09:39.043Z,8.88
2023-04-10T05:12:17.801Z,8.07
2023-04-10T05:14:56.833Z,8.45
2023-04-10T05:17:34.839Z,8.38
2023-04-10T05:20:35.696Z,8.68
2023-04-10T05:23:32.453Z,8.27
2023-04-10T05:26:22.519Z,8.30
2023-04-10T05:28:55.781Z,7.95
2023-04-10T05:31:23.822Z,8.77
2023-04-10T05:34:13.254Z,8.57
2023-04-10T05:36:59.530Z,9.40
2023-04-10T05:39:53.137Z,8.23
2023-04-10T05:42:54.457Z,8.82
2023-04-10T05:45:28.599Z,8.15
2023-04-10T05:47:59.279Z,8.82
2023-04-10T05:50:38.647Z,8.52
2023-04-10T05:53:31.220Z,8.82
2023-04-10T05:56:20.091Z,8.40
2023-04-10T05:59:08.154Z,8.85
2023-04-10T06:01:54.458Z,9.15
2023-04-10T06:04:22.483Z,8.60
2023-04-10T06:09:22.936Z,8.27
2023-04-10T06:11:51.021Z,8.35
2023-04-10T06:14:22.447Z,8.45
2023-04-10T06:16:50.758Z,8.13
2023-04-10T06:19:18.624Z,9.00
2023-04-10T06:21:46.778Z,8.35
2023-04-10T06:24:15.995Z,8.68
2023-04-10T06:26:48.321Z,8.43
2023-04-10T06:29:16.577Z,8.90
2023-04-10T06:31:45.120Z,9.18
2023-04-10T06:34:13.440Z,9.25
2023-04-10T06:36:50.668Z,8.65
2023-04-10T06:39:19.931Z,8.57
2023-04-10T06:41:47.686Z,8.43
2023-04-10T06:44:28.523Z,8.55
2023-04-10T06:46:56.282Z,8.65
2023-04-10T06:49:24.292Z,9.07
2023-04-10T06:51:52.140Z,8.80
2023-04-10T06:54:21.318Z,8.98
2023-04-10T06:56:49.115Z,8.23
2023-04-10T06:59:16.917Z,8.02
2023-04-10T07:01:44.672Z,8.30
2023-04-10T07:04:12.501Z,8.82
2023-04-10T07:06:40.302Z,8.02
2023-04-10T07:09:08.158Z,8.32
2023-04-10T07:11:37.299Z,7.47
2023-04-10T07:14:05.051Z,7.72
2023-04-10T07:16:32.855Z,8.13
2023-04-10T07:19:01.058Z,8.00
2023-04-10T07:21:28.818Z,7.28
2023-04-10T07:23:56.578Z,7.15
2023-04-10T07:26:25.447Z,7.38
2023-04-10T07:28:54.970Z,7.28
2023-04-10T07:31:23.109Z,7.80
2023-04-10T07:33:51.015Z,6.70
2023-04-10T07:36:18.856Z,7.68
2023-04-10T07:38:46.665Z,7.47
2023-04-10T07:41:14.517Z,7.68
2023-04-10T07:43:42.434Z,5.75
2023-04-10T07:46:11.599Z,7.53
2023-04-10T07:48:39.470Z,7.70
2023-04-10T07:51:09.294Z,7.43
2023-04-10T07:53:38.877Z,7.60
2023-04-10T07:56:07.626Z,6.47
2023-04-10T07:58:35.965Z,7.80
2023-04-10T08:01:03.752Z,7.10
2023-04-10T08:03:39.283Z,7.80
2023-04-10T08:06:09.139Z,7.90
2023-04-10T08:08:38.397Z,8.32
2023-04-10T08:11:09.081Z,8.20
2023-04-10T08:13:36.868Z,6.35
2023-04-10T08:16:05.000Z,8.70
2023-04-10T08:18:34.167Z,6.18
2023-04-10T08:21:02.068Z,8.18
2023-04-10T08:23:29.872Z,7.85
2023-04-10T08:25:57.681Z,7.90
2023-04-10T08:28:25.588Z,6.47
2023-04-10T08:30:54.569Z,7.72
2023-04-10T08:33:22.439Z,7.85
2023-04-10T08:35:51.602Z,7.55
2023-04-10T08:38:21.328Z,5.65
2023-04-10T08:40:49.073Z,8.63
2023-04-10T08:43:16.888Z,8.07
2023-04-10T08:45:45.863Z,6.10
2023-04-10T08:48:15.721Z,7.38
2023-04-10T08:50:46.412Z,6.15
2023-04-10T08:53:16.660Z,8.02
2023-04-10T08:55:46.807Z,8.50
2023-04-10T08:58:14.914Z,6.40
2023-04-10T09:00:42.738Z,8.38
2023-04-10T09:03:14.282Z,9.18
2023-04-10T09:05:42.343Z,7.63
2023-04-10T09:08:10.869Z,8.05
2023-04-10T09:10:40.076Z,8.73
2023-04-10T09:13:07.875Z,8.40
2023-04-10T09:15:57.486Z,8.05
2023-04-10T09:18:42.364Z,7.70
2023-04-10T09:21:11.751Z,5.63
2023-04-10T09:23:39.910Z,7.82
2023-04-10T09:26:24.533Z,7.32
2023-04-10T09:29:00.910Z,8.18
2023-04-10T09:31:34.803Z,7.43
2023-04-10T09:34:09.318Z,8.48
2023-04-10T09:36:37.994Z,7.18
2023-04-10T09:39:06.520Z,7.85
2023-04-10T09:41:35.774Z,7.15
2023-04-10T09:44:08.770Z,7.78
2023-04-10T09:46:36.664Z,7.45
2023-04-10T09:49:07.315Z,8.20
2023-04-10T09:51:37.107Z,8.27
2023-04-10T09:54:05.461Z,7.50
2023-04-10T09:56:40.917Z,7.72
2023-04-10T09:59:09.391Z,8.10
2023-04-10T10:01:41.177Z,7.90
2023-04-10T10:04:09.333Z,6.57
2023-04-10T10:06:40.301Z,6.60
2023-04-10T10:09:08.333Z,6.28
2023-04-10T10:11:37.970Z,8.00
2023-04-10T10:14:14.005Z,8.20
2023-04-10T10:16:47.709Z,7.47
2023-04-10T10:19:21.531Z,7.18
2023-04-10T10:21:49.698Z,8.13
2023-04-10T10:24:20.519Z,7.50
2023-04-10T10:26:51.413Z,8.57
2023-04-10T10:29:20.657Z,7.90
2023-04-10T10:31:48.976Z,7.60
2023-04-10T10:34:17.630Z,7.65
2023-04-10T10:36:45.524Z,7.43
2023-04-10T10:39:27.968Z,7.68
2023-04-10T10:42:03.264Z,7.55
2023-04-10T10:44:39.601Z,5.60
2023-04-10T10:47:15.607Z,7.47
2023-04-10T10:49:53.468Z,5.45
2023-04-10T10:52:43.146Z,7.28
2023-04-10T10:55:32.454Z,7.25
2023-04-10T10:58:02.481Z,6.35
2023-04-10T11:01:11.004Z,6.38
2023-04-10T11:03:39.367Z,5.25
2023-04-10T11:06:09.330Z,5.40
2023-04-10T11:08:46.777Z,5.70
2023-04-10T11:11:20.001Z,6.65
2023-04-10T11:14:18.888Z,5.63
2023-04-10T11:16:48.660Z,5.47
2023-04-10T11:19:22.803Z,5.63
2023-04-10T11:22:05.726Z,4.38
2023-04-10T11:24:53.278Z,5.32
2023-04-10T11:27:41.634Z,5.88
2023-04-10T11:30:29.122Z,4.53
2023-04-10T11:32:57.411Z,6.88
2023-04-10T11:35:26.462Z,5.90
2023-04-10T11:38:09.524Z,7.00
2023-04-10T11:40:54.462Z,5.38
2023-04-10T11:43:22.456Z,6.97
2023-04-10T11:45:51.635Z,5.10
2023-04-10T11:48:19.511Z,6.60
2023-04-10T11:50:47.341Z,6.60
2023-04-10T11:53:21.624Z,4.72
2023-04-10T11:55:49.438Z,5.43
2023-04-10T11:58:27.462Z,6.70
2023-04-10T12:01:05.146Z,6.32
2023-04-10T12:03:40.834Z,6.43
2023-04-10T12:06:11.254Z,5.47
2023-04-10T12:08:41.601Z,5.38
2023-04-10T12:11:11.020Z,6.38
2023-04-10T12:13:39.898Z,6.07
2023-04-10T12:16:10.834Z,6.53
2023-04-10T12:18:39.311Z,6.03
2023-04-10T12:21:08.909Z,4.10
2023-04-10T12:23:39.999Z,4.68
2023-04-10T12:26:11.036Z,5.72
2023-04-10T12:28:40.568Z,5.43
2023-04-10T12:31:10.334Z,5.00
2023-04-10T12:33:38.325Z,4.82
2023-04-10T12:36:06.544Z,3.75
2023-04-10T12:38:38.820Z,4.43
2023-04-10T12:41:07.704Z,4.93
2023-04-10T12:43:37.228Z,3.15
2023-04-10T12:46:06.666Z,5.00
2023-04-10T12:48:36.080Z,5.20
2023-04-10T12:51:04.193Z,4.90
2023-04-10T12:53:32.882Z,4.78
2023-04-10T12:56:03.563Z,4.32
2023-04-10T12:58:32.067Z,4.93
2023-04-10T13:01:04.131Z,4.05
2023-04-10T13:03:32.349Z,5.18
2023-04-10T13:06:01.620Z,4.80
2023-04-10T13:08:32.232Z,4.35
2023-04-10T13:11:03.419Z,2.90
2023-04-10T13:13:32.838Z,3.28
2023-04-10T13:16:00.860Z,4.68
2023-04-10T13:18:28.747Z,4.30
2023-04-10T13:20:56.518Z,4.13
2023-04-10T13:23:25.645Z,4.30
2023-04-10T13:25:53.633Z,4.78
2023-04-10T13:28:21.845Z,3.83
2023-04-10T13:30:49.699Z,4.55
2023-04-10T13:33:17.521Z,4.03
2023-04-10T13:35:45.417Z,4.18
2023-04-10T13:38:13.210Z,4.57
2023-04-10T13:40:42.349Z,4.57
2023-04-10T13:43:10.133Z,4.57
2023-04-10T13:45:37.879Z,3.30
2023-04-10T13:48:07.273Z,4.10
2023-04-10T13:50:35.604Z,4.75
2023-04-10T13:53:03.371Z,3.25
2023-04-10T13:55:31.154Z,4.53
2023-04-10T13:58:00.297Z,4.28
2023-04-10T14:00:28.162Z,4.30
2023-04-10T14:02:56.303Z,4.88
2023-04-10T14:05:24.292Z,4.55
2023-04-10T14:07:56.773Z,4.90
2023-04-10T14:10:24.587Z,4.22
2023-04-10T14:12:52.436Z,4.93
2023-04-10T14:15:21.721Z,4.50
2023-04-10T14:17:49.710Z,4.60
2023-04-10T14:20:17.614Z,4.35
2023-04-10T14:22:47.363Z,4.43
2023-04-10T14:25:16.178Z,5.30
2023-04-10T14:27:44.387Z,4.93
2023-04-10T14:30:12.660Z,4.53
2023-04-10T14:32:41.986Z,3.08
2023-04-10T14:35:10.829Z,3.22
2023-04-10T14:37:38.920Z,4.15
2023-04-10T14:40:08.101Z,4.40
2023-04-10T14:42:36.066Z,4.65
2023-04-10T14:45:05.493Z,4.35
2023-04-10T14:47:33.642Z,3.28
2023-04-10T14:50:02.956Z,5.20
2023-04-10T14:52:30.754Z,4.63
2023-04-10T14:54:58.529Z,4.95
2023-04-10T14:57:26.322Z,4.60
2023-04-10T14:59:54.141Z,4.93
2023-04-10T15:02:22.065Z,4.85
2023-04-10T15:04:49.997Z,3.70
2023-04-10T15:07:19.408Z,5.22
2023-04-10T15:09:47.159Z,5.07
2023-04-10T15:12:14.980Z,5.13
2023-04-10T15:14:42.797Z,5.75
2023-04-10T15:17:10.666Z,7.35
2023-04-10T15:19:38.486Z,5.15
2023-04-10T15:22:06.234Z,3.60
2023-04-10T15:24:47.062Z,5.35
2023-04-10T15:27:17.525Z,4.88
2023-04-10T15:29:45.270Z,5.00
2023-04-10T15:32:13.062Z,5.32
2023-04-10T15:34:40.950Z,5.53
2023-04-10T15:37:08.758Z,6.03
2023-04-10T15:39:37.892Z,4.72
2023-04-10T15:42:07.482Z,5.07
2023-04-10T15:44:35.364Z,5.45
2023-04-10T15:47:03.295Z,6.22
2023-04-10T15:49:37.988Z,5.75
2023-04-10T15:52:06.885Z,6.10
2023-04-10T15:54:35.508Z,5.55
2023-04-10T15:57:04.957Z,6.00
2023-04-10T15:59:33.952Z,5.90
2023-04-10T16:02:01.910Z,6.10
2023-04-10T16:04:30.042Z,5.82
2023-04-10T16:06:57.915Z,5.88
2023-04-10T16:09:26.807Z,5.95
2023-04-10T16:11:55.946Z,6.00
2023-04-10T16:14:25.147Z,6.57
2023-04-10T16:16:52.954Z,5.55
2023-04-10T16:19:21.107Z,5.72
2023-04-10T16:21:48.906Z,5.57
2023-04-10T16:24:16.788Z,5.70
2023-04-10T16:26:44.544Z,6.13
2023-04-10T16:29:12.380Z,6.57
2023-04-10T16:31:41.579Z,6.72
2023-04-10T16:34:09.371Z,7.25
2023-04-10T16:36:37.729Z,6.30
2023-04-10T16:39:07.329Z,7.05
2023-04-10T16:41:35.139Z,6.35
2023-04-10T16:44:03.178Z,7.55
2023-04-10T16:46:32.708Z,7.68
2023-04-10T16:49:02.508Z,8.20
2023-04-10T16:51:31.089Z,8.57
2023-04-10T16:53:58.867Z,8.07
2023-04-10T16:56:26.967Z,9.50
2023-04-10T16:58:55.037Z,8.73
2023-04-10T17:01:26.046Z,8.52
2023-04-10T17:03:54.405Z,7.63
2023-04-10T17:06:23.848Z,7.45
2023-04-10T17:08:51.648Z,9.25
2023-04-10T17:11:19.455Z,9.20
2023-04-10T17:13:47.622Z,8.00
2023-04-10T17:16:15.835Z,6.30
2023-04-10T17:18:43.711Z,6.82
2023-04-10T17:21:13.021Z,7.22
2023-04-10T17:23:42.370Z,7.40
2023-04-10T17:26:15.107Z,8.38
2023-04-10T17:28:44.830Z,7.75
2023-04-10T17:31:12.854Z,7.18
2023-04-10T17:33:42.120Z,8.02
2023-04-10T17:36:12.152Z,7.80
2023-04-10T17:38:40.397Z,6.82
2023-04-10T17:41:10.233Z,6.32
2023-04-10T17:43:38.196Z,4.68
2023-04-10T17:46:06.411Z,5.65
2023-04-10T17:48:34.418Z,6.20
2023-04-10T17:51:06.059Z,3.50
2023-04-10T17:53:34.085Z,4.32
2023-04-10T17:56:01.865Z,4.65
2023-04-10T17:58:31.087Z,4.72
2023-04-10T18:00:58.945Z,4.93
2023-04-10T18:03:26.941Z,5.03
2023-04-10T18:05:54.872Z,4.30
2023-04-10T18:08:22.639Z,4.90
2023-04-10T18:10:50.385Z,4.95
2023-04-10T18:13:18.191Z,5.60
2023-04-10T18:15:47.373Z,5.50
2023-04-10T18:18:15.152Z,4.75
2023-04-10T18:20:42.987Z,6.05
2023-04-10T18:23:10.777Z,5.85
2023-04-10T18:25:38.565Z,5.25
2023-04-10T18:28:13.724Z,5.13
2023-04-10T18:30:42.611Z,4.57
2023-04-10T18:33:11.908Z,4.35
2023-04-10T18:35:39.927Z,4.90
2023-04-10T18:38:07.801Z,5.25
2023-04-10T18:40:36.806Z,5.47
2023-04-10T18:43:06.115Z,5.07
2023-04-10T18:45:34.995Z,4.97
2023-04-10T18:48:02.873Z,4.57
2023-04-10T18:50:35.093Z,5.63
2023-04-10T18:53:03.552Z,4.95
2023-04-10T18:55:31.455Z,4.07
2023-04-10T18:57:59.353Z,4.35
2023-04-10T19:00:27.228Z,4.28
2023-04-10T19:02:56.116Z,4.60
2023-04-10T19:05:24.201Z,4.43
2023-04-10T19:08:03.692Z,4.47
2023-04-10T19:10:33.042Z,4.28
2023-04-10T19:13:00.991Z,4.45
2023-04-10T19:15:28.909Z,4.10
2023-04-10T19:17:56.996Z,4.70
2023-04-10T19:20:51.084Z,4.07
2023-04-10T19:23:14.234Z,3.47
2023-04-10T19:25:42.576Z,4.50
2023-04-10T19:28:10.458Z,3.92
2023-04-10T19:30:38.259Z,3.75
2023-04-10T19:33:06.176Z,4.03
2023-04-10T19:35:34.135Z,4.30
2023-04-10T19:38:01.973Z,4.55
2023-04-10T19:40:32.290Z,4.32
2023-04-10T19:43:01.829Z,4.68
2023-04-10T19:45:32.273Z,4.50
2023-04-10T19:48:00.424Z,3.58
2023-04-10T19:50:29.506Z,4.50
2023-04-10T19:52:57.594Z,4.40
2023-04-10T19:55:25.444Z,4.07
2023-04-10T19:57:54.645Z,4.70
2023-04-10T20:00:22.445Z,4.63
2023-04-10T20:02:50.407Z,4.90
2023-04-10T20:05:18.348Z,4.32
2023-04-10T20:07:46.199Z,4.63
2023-04-10T20:10:14.051Z,4.32
2023-04-10T20:12:41.840Z,4.70
2023-04-10T20:15:12.455Z,4.32
2023-04-10T20:17:40.393Z,4.72
2023-04-10T20:20:09.332Z,4.75
2023-04-10T20:22:37.078Z,3.88
2023-04-10T20:25:05.300Z,4.60
2023-04-10T20:27:33.065Z,4.43
2023-04-10T20:30:00.902Z,4.72
2023-04-10T20:32:30.128Z,5.13
2023-04-10T20:34:57.916Z,4.43
2023-04-10T20:37:25.720Z,4.20
2023-04-10T20:39:53.469Z,4.57
2023-04-10T20:42:21.255Z,5.05
2023-04-10T20:44:50.085Z,4.28
2023-04-10T20:47:19.030Z,4.93
2023-04-10T20:49:48.182Z,4.38
2023-04-10T20:52:16.128Z,4.43
2023-04-10T20:54:43.900Z,3.97
2023-04-10T20:57:11.678Z,4.47
2023-04-10T20:59:39.542Z,4.95
2023-04-10T21:02:07.817Z,4.63
2023-04-10T21:04:35.760Z,4.75
2023-04-10T21:07:04.902Z,4.53
2023-04-10T21:09:32.687Z,4.50
2023-04-10T21:12:00.461Z,4.38
2023-04-10T21:14:28.270Z,3.85
2023-04-10T21:16:56.185Z,3.90
2023-04-10T21:19:24.036Z,4.05
2023-04-10T21:21:51.853Z,4.22
2023-04-10T21:24:21.100Z,4.05
2023-04-10T21:26:48.959Z,4.50
2023-04-10T21:29:16.803Z,3.65
2023-04-10T21:31:44.670Z,3.65
2023-04-10T21:34:12.583Z,4.38
2023-04-10T21:36:40.491Z,4.50
2023-04-10T21:39:09.297Z,4.47
2023-04-10T21:41:38.996Z,4.43
2023-04-10T21:44:07.410Z,4.70
2023-04-10T21:46:35.405Z,4.50
2023-04-10T21:49:03.164Z,4.43
2023-04-10T21:51:31.142Z,4.18
2023-04-10T21:53:58.976Z,5.05
2023-04-10T21:56:26.762Z,3.15
2023-04-10T21:58:56.063Z,4.75
2023-04-10T22:01:24.032Z,4.00
2023-04-10T22:03:53.171Z,3.45
2023-04-10T22:06:21.088Z,3.85
2023-04-10T22:08:48.828Z,3.63
2023-04-10T22:11:16.590Z,3.85
2023-04-10T22:13:44.461Z,3.53
2023-04-10T22:16:13.610Z,4.13
2023-04-10T22:18:41.394Z,3.80
2023-04-10T22:21:09.539Z,4.32
2023-04-10T22:23:37.301Z,3.60
2023-04-10T22:26:05.167Z,3.20
2023-04-10T22:28:32.952Z,1.63
2023-04-10T22:31:00.883Z,1.90
2023-04-10T22:33:33.028Z,1.70
2023-04-10T22:36:00.909Z,1.70
2023-04-10T22:38:28.718Z,1.35
2023-04-10T22:40:56.806Z,1.40
2023-04-10T22:43:24.713Z,1.73
2023-04-10T22:45:52.498Z,1.73
2023-04-10T22:48:20.608Z,1.60
2023-04-10T22:50:49.741Z,1.60
2023-04-10T22:53:17.489Z,1.40
2023-04-10T22:55:45.297Z,1.60
2023-04-10T22:58:13.131Z,1.40
2023-04-10T23:00:40.882Z,1.65
2023-04-10T23:03:08.737Z,1.70
2023-04-10T23:05:36.628Z,1.20
2023-04-10T23:08:05.828Z,1.35
2023-04-10T23:10:33.574Z,1.20
2023-04-10T23:13:01.683Z,1.23
2023-04-10T23:15:29.493Z,1.48
2023-04-10T23:17:57.301Z,1.92
2023-04-10T23:20:25.729Z,1.40
2023-04-10T23:22:55.815Z,1.40
2023-04-10T23:25:25.287Z,1.23
2023-04-10T23:27:53.081Z,1.67
2023-04-10T23:30:20.945Z,1.70
2023-04-10T23:32:48.726Z,1.40
2023-04-10T23:35:16.674Z,1.33
2023-04-10T23:37:44.434Z,1.45
2023-04-10T23:40:13.065Z,1.70
2023-04-10T23:42:42.183Z,1.92
2023-04-10T23:45:11.090Z,1.63
2023-04-10T23:47:38.973Z,1.77
2023-04-10T23:50:08.083Z,1.73
2023-04-10T23:52:35.862Z,2.40
2023-04-10T23:55:03.610Z,2.20
2023-04-10T23:57:31.408Z,2.35
